Pep, Texas
Current Conditions -  °F | °C
As of 12:53 AM on Friday 28 Nov 2014 (Local Time) from KLBB Reporting Station
Clear Clear  
Wind Chill: 41°   Ceiling: Unl
Heat Index: 47°   Visibility: 10mi
Dew Point: 28°   Wind: 13mph
Humidity: 48%   Direction: 220°SW
Pressure: 30.21"   Gusts: NA
Location:  33.81°N, 102.56°W
Report Text: KLBB 280653Z 22011KT 10SM CLR 08/M02 A3021 RMK AO2 SLP215 T00831022
Loading
Personal Weather Stations






























Interactive Weather Map New forecast layout! Learn more

10-Day Weather Forecast

Advertisements
Track Severe Weather on mobile